Time;durP1;ratioP1;P1;durP2;ratioP2;P2;SDS_P1;SDS_P2;PMS_P1;PMS_P2;Temp;Humidity;BMP_temperature;BMP_pressure;BME280_temperature;BME280_humidity;BME280_pressure;Samples;Min_cycle;Max_cycle;Signal;HPM_P1;HPM_P2
2022/08/15 00:00:11;;;;;;;5.47;2.90;;;23.80;70.30;;;;;;5042588;28;20229;-58
2022/08/15 00:02:43;;;;;;;3.67;3.00;;;23.80;70.80;;;;;;5051236;28;20191;-58
2022/08/15 00:05:12;;;;;;;6.05;3.03;;;23.70;70.90;;;;;;5051266;28;20237;-58
2022/08/15 00:07:39;;;;;;;6.85;3.00;;;23.70;71.20;;;;;;5051819;28;20719;-58
2022/08/15 00:10:07;;;;;;;6.13;2.97;;;23.70;71.60;;;;;;5050632;28;20174;-58
2022/08/15 00:12:34;;;;;;;6.28;3.00;;;23.70;71.80;;;;;;5051182;28;20189;-58
2022/08/15 00:15:00;;;;;;;4.57;2.80;;;23.60;72.30;;;;;;5051360;28;20200;-58
2022/08/15 00:17:25;;;;;;;6.00;2.90;;;23.60;73.00;;;;;;5050457;28;20208;-58
2022/08/15 00:19:51;;;;;;;4.45;2.80;;;23.50;73.50;;;;;;5050383;28;20177;-58
2022/08/15 00:22:19;;;;;;;7.97;3.53;;;23.50;74.50;;;;;;5051089;28;20629;-58
2022/08/15 00:24:48;;;;;;;5.50;3.05;;;23.40;75.10;;;;;;5051059;28;20224;-58
2022/08/15 00:27:13;;;;;;;5.20;3.00;;;23.40;75.30;;;;;;5051241;28;20174;-58
2022/08/15 00:29:39;;;;;;;4.05;2.70;;;23.30;75.40;;;;;;5049826;28;20184;-58
2022/08/15 00:32:19;;;;;;;3.90;2.65;;;23.30;75.30;;;;;;5051017;28;20645;-58
2022/08/15 00:34:45;;;;;;;4.15;2.70;;;23.30;75.40;;;;;;5050653;28;20181;-57
2022/08/15 00:37:11;;;;;;;4.93;2.67;;;23.30;75.60;;;;;;5051297;28;20185;-58
2022/08/15 00:39:37;;;;;;;6.18;3.45;;;23.30;75.80;;;;;;5047629;28;20181;-58
2022/08/15 00:42:05;;;;;;;4.15;2.80;;;23.30;75.90;;;;;;5050744;28;20671;-57
2022/08/15 00:44:40;;;;;;;5.05;2.60;;;23.30;75.90;;;;;;5050950;28;20218;-58
2022/08/15 00:47:12;;;;;;;5.53;2.95;;;23.30;76.10;;;;;;5050633;28;20204;-58
2022/08/15 00:49:38;;;;;;;6.68;2.42;;;23.30;76.30;;;;;;5050793;28;20189;-58
2022/08/15 00:52:19;;;;;;;3.83;2.75;;;23.30;76.80;;;;;;5051366;28;20206;-58
2022/08/15 00:54:50;;;;;;;5.28;2.65;;;23.30;79.30;;;;;;5050943;28;20701;-59
2022/08/15 00:57:23;;;;;;;9.93;3.03;;;23.20;82.90;;;;;;5051099;28;20169;-58
2022/08/15 00:59:57;;;;;;;4.57;3.00;;;23.10;85.20;;;;;;5050514;28;20223;-58
2022/08/15 01:02:27;;;;;;;5.15;2.80;;;23.00;86.40;;;;;;5050511;28;20213;-58
2022/08/15 01:04:52;;;;;;;5.07;2.85;;;22.80;87.50;;;;;;5050803;28;20217;-58
2022/08/15 01:07:19;;;;;;;6.00;2.92;;;22.70;88.60;;;;;;5050969;28;20177;-58
2022/08/15 01:09:45;;;;;;;5.60;2.90;;;22.60;89.30;;;;;;5050989;28;20710;-58
2022/08/15 01:12:18;;;;;;;5.65;3.15;;;22.60;90.00;;;;;;5050531;28;20220;-58
2022/08/15 01:14:48;;;;;;;4.57;3.00;;;22.50;90.60;;;;;;5050933;28;20174;-58
2022/08/15 01:17:16;;;;;;;6.50;3.17;;;22.50;90.70;;;;;;5050939;28;20174;-58
2022/08/15 01:19:49;;;;;;;3.35;2.78;;;22.40;91.00;;;;;;5050519;28;20174;-58
2022/08/15 01:22:49;;;;;;;8.13;3.25;;;22.40;91.40;;;;;;5050402;28;20189;-58
2022/08/15 01:25:42;;;;;;;4.03;3.00;;;22.30;91.70;;;;;;5043510;28;20750;-58
2022/08/15 01:28:13;;;;;;;6.55;3.08;;;22.20;92.10;;;;;;5049349;28;20209;-58
2022/08/15 01:30:53;;;;;;;4.45;3.08;;;22.20;92.20;;;;;;5054492;28;21039;-58
2022/08/15 01:33:20;;;;;;;6.45;3.22;;;22.10;92.70;;;;;;5054497;28;20193;-58
2022/08/15 01:35:47;;;;;;;5.00;2.70;;;22.10;93.10;;;;;;5053993;28;20629;-58
2022/08/15 01:38:25;;;;;;;8.07;3.15;;;22.10;93.30;;;;;;5051297;28;20181;-58
2022/08/15 01:41:19;;;;;;;5.93;3.03;;;22.00;93.20;;;;;;5054227;28;20185;-58
2022/08/15 01:43:58;;;;;;;5.22;3.42;;;22.00;93.60;;;;;;5047848;28;20201;-58
2022/08/15 01:46:30;;;;;;;5.43;3.35;;;21.90;93.60;;;;;;5053948;28;20194;-58
2022/08/15 01:49:21;;;;;;;3.88;3.03;;;21.90;93.50;;;;;;5054090;28;20188;-58
2022/08/15 01:51:49;;;;;;;5.95;3.40;;;21.90;93.50;;;;;;5052303;28;20659;-58
2022/08/15 01:54:15;;;;;;;5.00;2.83;;;21.90;93.50;;;;;;5053918;28;20272;-58
2022/08/15 01:56:45;;;;;;;8.20;3.13;;;21.90;93.60;;;;;;5054204;28;20238;-58
2022/08/15 01:59:15;;;;;;;4.53;3.30;;;21.90;93.50;;;;;;5054345;28;20193;-58
2022/08/15 02:01:48;;;;;;;6.78;3.90;;;21.90;93.50;;;;;;5053656;28;20574;-58
2022/08/15 02:04:16;;;;;;;6.63;3.38;;;21.90;93.60;;;;;;5053964;28;20652;-58
2022/08/15 02:06:43;;;;;;;5.32;2.97;;;21.90;93.40;;;;;;5053635;28;20216;-58
2022/08/15 02:09:12;;;;;;;4.50;2.92;;;21.90;93.30;;;;;;5053587;28;20636;-58
2022/08/15 02:11:39;;;;;;;5.40;3.15;;;21.90;93.30;;;;;;5053562;28;20293;-58
2022/08/15 02:14:06;;;;;;;7.40;3.53;;;21.90;93.20;;;;;;5053553;28;20227;-57
2022/08/15 02:16:37;;;;;;;3.30;3.00;;;21.90;93.10;;;;;;5053598;28;20200;-58
2022/08/15 02:19:07;;;;;;;6.85;3.00;;;21.90;93.20;;;;;;5053316;28;20180;-58
2022/08/15 02:21:34;;;;;;;3.63;2.78;;;21.90;93.20;;;;;;5053337;28;20181;-57
2022/08/15 02:23:59;;;;;;;3.88;2.75;;;21.90;93.30;;;;;;5053654;28;20213;-58
2022/08/15 02:26:25;;;;;;;6.55;3.45;;;21.90;93.50;;;;;;5053300;28;20230;-58
2022/08/15 02:28:51;;;;;;;5.25;3.90;;;22.00;93.50;;;;;;5052769;28;20239;-58
2022/08/15 02:31:23;;;;;;;6.93;3.08;;;22.00;93.70;;;;;;5053724;28;20625;-58
2022/08/15 02:33:56;;;;;;;4.68;2.80;;;21.90;93.70;;;;;;5053116;28;20192;-59
2022/08/15 02:36:23;;;;;;;3.75;2.55;;;22.00;93.90;;;;;;5042503;28;20667;-58
2022/08/15 02:38:49;;;;;;;6.32;3.05;;;21.90;93.90;;;;;;5042971;28;20228;-58
2022/08/15 02:41:24;;;;;;;3.92;2.75;;;22.00;94.20;;;;;;5042005;28;20724;-58
2022/08/15 02:43:50;;;;;;;5.32;3.25;;;22.00;94.30;;;;;;5052708;28;20215;-59
2022/08/15 02:46:16;;;;;;;5.72;3.03;;;22.00;94.40;;;;;;5052696;28;20576;-60
2022/08/15 02:48:43;;;;;;;3.03;2.65;;;21.90;94.60;;;;;;5052905;28;20221;-59
2022/08/15 02:51:12;;;;;;;6.00;2.85;;;21.90;94.70;;;;;;5052617;28;20189;-60
2022/08/15 02:53:37;;;;;;;5.10;2.55;;;21.90;94.70;;;;;;5052368;28;20185;-61
2022/08/15 02:56:06;;;;;;;5.93;2.55;;;21.90;94.80;;;;;;5052313;28;20177;-61
2022/08/15 02:58:32;;;;;;;3.80;2.40;;;21.90;95.00;;;;;;5053189;28;20200;-60
2022/08/15 03:00:58;;;;;;;2.47;2.28;;;21.90;95.10;;;;;;5052454;28;20227;-61
2022/08/15 03:03:26;;;;;;;3.10;2.47;;;21.80;95.10;;;;;;5052285;28;20591;-61
2022/08/15 03:05:52;;;;;;;4.18;2.42;;;21.80;95.30;;;;;;5052617;28;20265;-61
2022/08/15 03:08:17;;;;;;;4.13;2.47;;;21.80;95.50;;;;;;5052719;28;20252;-60
2022/08/15 03:10:43;;;;;;;4.93;2.60;;;21.70;95.50;;;;;;5050877;28;20178;-61
2022/08/15 03:13:16;;;;;;;3.38;2.90;;;21.70;95.80;;;;;;5038897;28;20900;-62
2022/08/15 03:15:55;;;;;;;4.28;2.55;;;21.60;96.00;;;;;;5052030;28;20658;-60
2022/08/15 03:18:23;;;;;;;4.68;2.53;;;21.50;96.10;;;;;;5051149;28;20185;-61
2022/08/15 03:20:51;;;;;;;3.90;2.40;;;21.50;96.40;;;;;;5052125;28;20208;-62
2022/08/15 03:23:19;;;;;;;3.53;2.53;;;21.50;96.70;;;;;;5052394;28;20238;-61
2022/08/15 03:25:49;;;;;;;6.82;2.70;;;21.40;96.90;;;;;;5051945;28;20193;-61
2022/08/15 03:28:23;;;;;;;2.70;2.30;;;21.30;97.10;;;;;;5052103;28;20208;-60
2022/08/15 03:30:49;;;;;;;4.75;2.33;;;21.30;97.40;;;;;;5038950;28;20548;-61
2022/08/15 03:33:15;;;;;;;4.47;2.75;;;21.20;97.70;;;;;;5051533;28;20316;-60
2022/08/15 03:35:47;;;;;;;3.97;2.17;;;21.20;98.00;;;;;;5051753;28;20181;-60
2022/08/15 03:38:13;;;;;;;3.28;2.38;;;21.10;98.20;;;;;;5048817;28;20178;-60
2022/08/15 03:40:40;;;;;;;5.97;2.45;;;21.10;98.40;;;;;;5049210;28;20181;-60
2022/08/15 03:43:11;;;;;;;2.75;2.20;;;21.10;98.60;;;;;;5049889;28;20184;-60
2022/08/15 03:45:37;;;;;;;3.13;2.00;;;21.10;98.80;;;;;;5051409;28;20237;-60
2022/08/15 03:48:03;;;;;;;6.57;2.88;;;21.00;98.90;;;;;;5051675;28;20272;-60
2022/08/15 03:50:31;;;;;;;7.18;3.00;;;21.00;99.30;;;;;;5052001;28;20268;-60
2022/08/15 03:53:02;;;;;;;2.47;2.20;;;21.00;99.00;;;;;;5051498;28;20184;-60
2022/08/15 03:55:30;;;;;;;3.20;2.50;;;21.00;99.20;;;;;;5052248;28;20663;-60
2022/08/15 03:57:56;;;;;;;3.15;2.28;;;21.00;99.50;;;;;;5051006;28;20189;-61
2022/08/15 04:00:27;;;;;;;2.80;2.20;;;20.90;99.70;;;;;;5051503;28;20228;-60
2022/08/15 04:03:10;;;;;;;3.28;2.38;;;20.90;99.80;;;;;;5050557;28;20227;-59
2022/08/15 04:05:36;;;;;;;3.13;2.33;;;20.80;99.90;;;;;;5049203;28;20220;-59
2022/08/15 04:08:08;;;;;;;2.75;2.10;;;20.80;99.90;;;;;;5051466;28;20209;-60
2022/08/15 04:10:34;;;;;;;2.30;2.10;;;20.70;99.90;;;;;;5050100;28;20185;-60
2022/08/15 04:13:01;;;;;;;3.47;2.10;;;20.70;99.90;;;;;;5051260;28;20652;-60
2022/08/15 04:15:27;;;;;;;2.55;2.17;;;20.70;99.90;;;;;;5051179;28;20540;-64
2022/08/15 04:17:54;;;;;;;2.83;2.33;;;20.60;99.90;;;;;;5052887;28;20181;-63
2022/08/15 04:20:20;;;;;;;3.00;2.33;;;20.60;99.90;;;;;;5052026;28;20185;-61
2022/08/15 04:22:49;;;;;;;3.28;2.42;;;20.50;99.90;;;;;;5051985;28;20182;-60
2022/08/15 04:25:29;;;;;;;2.35;2.15;;;20.40;99.90;;;;;;5051549;28;20672;-62
2022/08/15 04:27:59;;;;;;;2.85;2.38;;;20.40;99.90;;;;;;5051672;28;20185;-62
2022/08/15 04:30:27;;;;;;;3.05;2.60;;;20.30;99.90;;;;;;5051520;28;20268;-61
2022/08/15 04:32:56;;;;;;;3.45;2.60;;;20.20;99.90;;;;;;5051582;28;20191;-58
2022/08/15 04:35:22;;;;;;;4.90;2.70;;;20.20;99.90;;;;;;5051431;28;20256;-60
2022/08/15 04:37:48;;;;;;;4.43;2.55;;;20.10;99.90;;;;;;5049968;28;20195;-60
2022/08/15 04:40:14;;;;;;;3.70;2.67;;;20.10;99.90;;;;;;5050987;28;20185;-59
2022/08/15 04:42:51;;;;;;;4.43;2.55;;;20.00;99.90;;;;;;5051683;28;20644;-60
2022/08/15 04:45:17;;;;;;;2.38;2.15;;;19.90;99.90;;;;;;5051268;28;20213;-58
2022/08/15 04:47:42;;;;;;;3.65;2.50;;;19.90;99.90;;;;;;5050689;28;20178;-61
2022/08/15 04:50:09;;;;;;;3.67;2.80;;;19.80;99.90;;;;;;5050890;28;20590;-60
2022/08/15 04:52:44;;;;;;;3.13;2.65;;;19.80;99.90;;;;;;5049861;28;20271;-60
2022/08/15 04:55:10;;;;;;;2.65;2.45;;;19.80;99.90;;;;;;5051524;28;20666;-60
2022/08/15 04:57:36;;;;;;;3.42;2.65;;;19.80;99.90;;;;;;5050830;28;20256;-60
2022/08/15 05:00:05;;;;;;;7.35;4.18;;;19.80;99.90;;;;;;5052520;28;20259;-60
2022/08/15 05:02:30;;;;;;;3.08;2.75;;;19.80;99.90;;;;;;5067639;28;20185;-59
2022/08/15 05:04:56;;;;;;;4.10;2.83;;;19.70;99.90;;;;;;5055511;28;20212;-60
2022/08/15 05:07:22;;;;;;;4.07;2.53;;;19.70;99.90;;;;;;5055475;28;20208;-59
2022/08/15 05:09:47;;;;;;;3.47;2.72;;;19.70;99.90;;;;;;5055126;28;20182;-61
2022/08/15 05:12:13;;;;;;;3.67;2.47;;;19.70;99.90;;;;;;5055184;28;20382;-61
2022/08/15 05:14:39;;;;;;;7.03;2.60;;;19.70;99.90;;;;;;5055667;28;20174;-61
2022/08/15 05:17:04;;;;;;;3.78;2.60;;;19.70;99.90;;;;;;5055305;28;20656;-61
2022/08/15 05:19:30;;;;;;;4.55;3.08;;;19.80;99.90;;;;;;5055231;28;20211;-61
2022/08/15 05:21:55;;;;;;;3.42;2.70;;;19.70;99.90;;;;;;5055378;28;20188;-61
2022/08/15 05:24:21;;;;;;;4.50;2.85;;;19.80;99.90;;;;;;5055154;28;20613;-61
2022/08/15 05:26:46;;;;;;;3.80;2.72;;;19.80;99.90;;;;;;5054637;28;20189;-61
2022/08/15 05:29:12;;;;;;;3.78;2.50;;;19.80;99.90;;;;;;5054461;28;20170;-61
2022/08/15 05:31:38;;;;;;;3.47;2.67;;;19.90;99.90;;;;;;5052408;28;20189;-59
2022/08/15 05:34:03;;;;;;;4.75;2.92;;;19.90;99.90;;;;;;5054706;28;20173;-60
2022/08/15 05:36:33;;;;;;;4.78;2.85;;;19.90;99.90;;;;;;5054851;28;20188;-59
2022/08/15 05:39:13;;;;;;;3.90;2.78;;;19.90;99.90;;;;;;5046789;28;20199;-60
2022/08/15 05:41:59;;;;;;;5.28;3.00;;;19.90;99.90;;;;;;5054421;28;20173;-61
2022/08/15 05:44:52;;;;;;;3.72;2.92;;;20.00;99.90;;;;;;5054474;28;20205;-62
2022/08/15 05:47:33;;;;;;;4.90;2.45;;;20.00;99.90;;;;;;5050809;28;20193;-61
2022/08/15 05:50:22;;;;;;;4.80;2.60;;;19.90;99.90;;;;;;5054498;28;20177;-60
2022/08/15 05:52:53;;;;;;;2.80;2.22;;;20.00;99.90;;;;;;5054057;28;20242;-60
2022/08/15 05:55:31;;;;;;;2.83;2.63;;;20.00;99.90;;;;;;5054306;28;20680;-58
2022/08/15 05:58:11;;;;;;;2.72;2.50;;;20.00;99.90;;;;;;5047620;28;20184;-58
2022/08/15 06:00:40;;;;;;;3.60;2.72;;;20.00;99.90;;;;;;5054037;28;20228;-59
2022/08/15 06:03:17;;;;;;;4.72;2.83;;;20.10;99.90;;;;;;5054158;28;20177;-58
2022/08/15 06:05:50;;;;;;;6.25;3.10;;;20.10;99.90;;;;;;5053811;28;20220;-61
2022/08/15 06:08:20;;;;;;;3.25;2.95;;;20.10;99.90;;;;;;5054157;28;20181;-60
2022/08/15 06:10:51;;;;;;;5.03;3.53;;;20.20;99.90;;;;;;5054063;28;20223;-60
2022/08/15 06:13:24;;;;;;;4.30;3.00;;;20.20;99.90;;;;;;5053900;28;20186;-60
2022/08/15 06:15:58;;;;;;;2.92;2.65;;;20.20;99.90;;;;;;5054166;28;20173;-60
2022/08/15 06:18:27;;;;;;;3.70;2.70;;;20.20;99.90;;;;;;5053626;28;20555;-59
2022/08/15 06:21:04;;;;;;;3.63;2.75;;;20.20;99.90;;;;;;5053850;28;20238;-60
2022/08/15 06:23:55;;;;;;;4.38;2.72;;;20.20;99.90;;;;;;5053720;28;20222;-59
2022/08/15 06:26:36;;;;;;;3.17;2.80;;;20.20;99.90;;;;;;5053935;28;20250;-60
2022/08/15 06:29:25;;;;;;;3.85;2.90;;;20.30;99.90;;;;;;5053286;28;20227;-59
2022/08/15 06:32:21;;;;;;;3.70;2.75;;;20.30;99.90;;;;;;5052972;28;20205;-62
2022/08/15 06:35:25;;;;;;;3.45;2.53;;;20.30;99.90;;;;;;5033347;28;20244;-59
2022/08/15 06:37:55;;;;;;;6.45;2.92;;;20.30;99.90;;;;;;5044008;28;20260;-59
2022/08/15 06:40:53;;;;;;;6.03;3.42;;;20.30;99.90;;;;;;5035727;28;20171;-59
2022/08/15 06:43:19;;;;;;;4.70;2.72;;;20.30;99.90;;;;;;5053220;28;20180;-59
2022/08/15 06:45:48;;;;;;;6.05;2.60;;;20.30;99.90;;;;;;5053114;28;20217;-59
2022/08/15 06:48:18;;;;;;;2.83;2.30;;;20.40;99.90;;;;;;5053242;28;20257;-58
2022/08/15 06:50:54;;;;;;;6.43;2.78;;;20.30;99.90;;;;;;5052963;28;20239;-59
2022/08/15 06:53:33;;;;;;;3.08;2.70;;;20.30;99.90;;;;;;5053149;28;20252;-61
2022/08/15 06:56:16;;;;;;;2.78;2.35;;;20.20;99.90;;;;;;5052439;28;20181;-61
2022/08/15 06:58:55;;;;;;;4.60;2.50;;;20.20;99.90;;;;;;5050821;28;20316;-60
2022/08/15 07:01:28;;;;;;;3.15;2.40;;;20.20;99.90;;;;;;5052984;28;20236;-61
2022/08/15 07:04:03;;;;;;;2.15;1.88;;;20.10;99.90;;;;;;5052715;28;20200;-61
2022/08/15 07:07:00;;;;;;;2.22;2.10;;;20.00;99.90;;;;;;5053054;28;20187;-61
2022/08/15 07:09:53;;;;;;;2.50;2.17;;;20.00;99.90;;;;;;5049110;28;20190;-62
2022/08/15 07:12:27;;;;;;;2.47;1.95;;;19.90;99.90;;;;;;5052725;28;20170;-61
2022/08/15 07:15:03;;;;;;;2.08;1.95;;;20.00;99.90;;;;;;5052364;28;20181;-61
2022/08/15 07:17:46;;;;;;;2.30;2.10;;;20.00;99.90;;;;;;5052639;28;20170;-61
2022/08/15 07:20:12;;;;;;;3.30;2.00;;;20.00;99.90;;;;;;5052779;28;20264;-62
2022/08/15 07:22:39;;;;;;;3.13;1.77;;;20.10;99.90;;;;;;5051904;28;20276;-61
2022/08/15 07:25:19;;;;;;;5.35;2.30;;;20.10;99.90;;;;;;5051881;28;20225;-61
2022/08/15 07:27:58;;;;;;;2.97;1.98;;;20.20;99.90;;;;;;5052155;28;20196;-60
2022/08/15 07:30:45;;;;;;;4.97;2.05;;;20.40;99.90;;;;;;5051294;28;20177;-60
2022/08/15 07:33:28;;;;;;;1.98;1.88;;;20.60;99.90;;;;;;5052476;28;20209;-60
2022/08/15 07:36:06;;;;;;;3.28;1.92;;;20.70;99.90;;;;;;5052354;28;20205;-60
2022/08/15 07:38:32;;;;;;;4.30;2.20;;;20.90;99.90;;;;;;5046706;28;20186;-60
2022/08/15 07:41:24;;;;;;;4.80;2.35;;;21.00;99.90;;;;;;5039048;28;20173;-60
2022/08/15 07:43:52;;;;;;;2.42;1.90;;;21.00;99.90;;;;;;5052665;28;20169;-60
2022/08/15 07:46:23;;;;;;;3.60;2.30;;;21.00;99.90;;;;;;5051783;28;20669;-60
2022/08/15 07:49:07;;;;;;;2.50;2.28;;;21.00;99.90;;;;;;5052684;28;20223;-60
2022/08/15 07:51:47;;;;;;;2.75;1.73;;;21.00;99.90;;;;;;5052230;28;20235;-60
2022/08/15 07:54:32;;;;;;;1.85;1.70;;;21.00;99.90;;;;;;5052034;28;20173;-60
2022/08/15 07:57:02;;;;;;;2.17;1.98;;;21.00;99.90;;;;;;5043315;28;20205;-58
2022/08/15 07:59:33;;;;;;;3.25;1.88;;;21.00;99.90;;;;;;5051887;28;20181;-60
2022/08/15 08:02:08;;;;;;;2.50;1.80;;;21.10;99.90;;;;;;5046447;28;20264;-58
2022/08/15 08:04:34;;;;;;;4.70;2.58;;;21.30;99.90;;;;;;5051639;28;20303;-60
2022/08/15 08:07:04;;;;;;;1.90;1.80;;;21.60;99.90;;;;;;5051756;28;20256;-59
2022/08/15 08:09:52;;;;;;;2.42;2.00;;;22.20;99.90;;;;;;5051302;28;20185;-60
2022/08/15 08:12:41;;;;;;;1.98;1.77;;;22.90;99.90;;;;;;5051810;28;20173;-59
2022/08/15 08:15:24;;;;;;;3.00;1.65;;;23.30;99.90;;;;;;5031791;28;20182;-60
2022/08/15 08:18:16;;;;;;;2.88;1.92;;;23.80;99.90;;;;;;5034078;28;20260;-60
2022/08/15 08:20:52;;;;;;;2.83;1.48;;;24.80;99.90;;;;;;5051653;28;20224;-60
2022/08/15 08:23:18;;;;;;;1.95;1.65;;;25.90;97.60;;;;;;5051463;28;20260;-60
2022/08/15 08:26:18;;;;;;;2.28;1.70;;;27.20;95.40;;;;;;5051550;28;20386;-60
2022/08/15 08:28:50;;;;;;;2.85;1.50;;;27.90;92.90;;;;;;5031599;28;20193;-60
2022/08/15 08:31:26;;;;;;;1.48;1.38;;;27.80;91.20;;;;;;5032734;28;20178;-60
2022/08/15 08:34:20;;;;;;;4.63;2.28;;;27.40;91.50;;;;;;5050425;28;20216;-60
2022/08/15 08:37:05;;;;;;;1.80;1.70;;;27.10;92.10;;;;;;5051128;28;20188;-60
2022/08/15 08:39:48;;;;;;;1.60;1.50;;;26.70;91.90;;;;;;5048703;28;20212;-60
2022/08/15 08:42:26;;;;;;;1.60;1.50;;;26.50;92.50;;;;;;5051061;28;20184;-60
2022/08/15 08:45:13;;;;;;;2.53;1.42;;;26.30;92.60;;;;;;5050469;28;20251;-60
2022/08/15 08:48:02;;;;;;;3.50;1.40;;;26.00;92.50;;;;;;5032100;28;20253;-59
2022/08/15 08:50:46;;;;;;;1.65;1.55;;;25.80;92.50;;;;;;5037152;28;20177;-59
2022/08/15 08:53:17;;;;;;;3.35;1.50;;;25.90;93.00;;;;;;5051549;28;20185;-60
2022/08/15 08:55:50;;;;;;;1.65;1.30;;;26.20;93.20;;;;;;5050833;28;20184;-59
2022/08/15 08:58:38;;;;;;;4.57;1.70;;;26.70;92.40;;;;;;5031782;28;20208;-60
2022/08/15 09:01:08;;;;;;;2.25;1.40;;;26.80;91.30;;;;;;5048177;28;20233;-60
2022/08/15 09:03:46;;;;;;;1.52;1.40;;;26.80;91.50;;;;;;5051476;28;20177;-60
2022/08/15 09:06:16;;;;;;;1.75;1.50;;;27.10;91.20;;;;;;5051017;28;20189;-60
2022/08/15 09:08:44;;;;;;;2.08;1.40;;;27.70;90.90;;;;;;5051900;28;20224;-60
2022/08/15 09:11:25;;;;;;;1.50;1.40;;;28.50;87.90;;;;;;5051411;28;20173;-60
2022/08/15 09:13:55;;;;;;;2.35;1.50;;;28.50;85.30;;;;;;5050848;28;20182;-60
2022/08/15 09:16:33;;;;;;;2.20;1.70;;;28.30;84.30;;;;;;5051593;28;20264;-60
2022/08/15 09:19:06;;;;;;;1.67;1.38;;;28.00;84.70;;;;;;5050827;28;20177;-60
2022/08/15 09:21:33;;;;;;;2.88;1.50;;;27.30;85.20;;;;;;5051360;28;20181;-59
2022/08/15 09:23:59;;;;;;;2.50;1.50;;;26.50;87.60;;;;;;5050899;28;20236;-60
2022/08/15 09:26:35;;;;;;;1.70;1.55;;;26.10;88.30;;;;;;5050967;28;20255;-60
2022/08/15 09:29:33;;;;;;;1.90;1.70;;;25.80;90.00;;;;;;5050930;28;20227;-60
2022/08/15 09:32:20;;;;;;;2.55;1.65;;;26.20;90.60;;;;;;5051221;28;20188;-60
2022/08/15 09:35:05;;;;;;;4.95;1.80;;;26.50;90.10;;;;;;5050852;28;20641;-59
2022/08/15 09:37:53;;;;;;;1.60;1.50;;;27.10;89.40;;;;;;5051320;28;20181;-60
2022/08/15 09:40:33;;;;;;;1.90;1.70;;;27.60;85.10;;;;;;5044144;28;20219;-60
2022/08/15 09:43:01;;;;;;;1.80;1.60;;;27.70;84.50;;;;;;5051081;28;20265;-60
2022/08/15 09:45:47;;;;;;;2.10;1.67;;;27.90;84.40;;;;;;5050902;28;20245;-60
2022/08/15 09:48:24;;;;;;;2.08;1.80;;;28.50;80.50;;;;;;5043518;28;20239;-60
2022/08/15 09:51:28;;;;;;;2.97;1.80;;;28.70;78.80;;;;;;5034772;28;20711;-60
2022/08/15 09:54:06;;;;;;;1.73;1.60;;;28.80;78.10;;;;;;5037080;28;20185;-60
2022/08/15 09:56:36;;;;;;;3.63;1.70;;;29.00;77.70;;;;;;5054414;28;20260;-60
2022/08/15 09:59:15;;;;;;;3.25;1.77;;;28.80;77.30;;;;;;5054309;28;20513;-60
2022/08/15 10:01:46;;;;;;;3.85;1.83;;;28.80;77.30;;;;;;5053814;28;20229;-60
2022/08/15 10:04:14;;;;;;;1.70;1.60;;;28.90;76.90;;;;;;5054389;28;20202;-60
2022/08/15 10:06:56;;;;;;;2.53;1.50;;;28.80;76.60;;;;;;5054092;28;20228;-59
2022/08/15 10:09:33;;;;;;;2.03;1.60;;;29.00;77.20;;;;;;5054619;28;20185;-60
2022/08/15 10:12:08;;;;;;;1.67;1.58;;;29.40;75.50;;;;;;5054106;28;20637;-60
2022/08/15 10:14:42;;;;;;;3.13;1.92;;;29.40;72.30;;;;;;5054245;28;20173;-60
2022/08/15 10:17:37;;;;;;;1.48;1.38;;;29.30;73.10;;;;;;5053757;28;20678;-60
2022/08/15 10:20:15;;;;;;;2.28;1.70;;;29.30;72.20;;;;;;5051274;28;20181;-60
2022/08/15 10:22:49;;;;;;;1.60;1.50;;;29.30;71.90;;;;;;5053500;28;20587;-60
2022/08/15 10:25:30;;;;;;;1.80;1.70;;;29.00;71.80;;;;;;5054140;28;20217;-60
2022/08/15 10:28:08;;;;;;;1.95;1.85;;;29.00;72.70;;;;;;5054119;28;20181;-59
2022/08/15 10:30:45;;;;;;;1.65;1.55;;;28.90;73.10;;;;;;5034199;28;20192;-60
2022/08/15 10:33:27;;;;;;;2.47;1.83;;;29.00;72.00;;;;;;5051060;28;20188;-59
2022/08/15 10:36:02;;;;;;;1.60;1.50;;;29.40;73.00;;;;;;5053767;28;20181;-59
2022/08/15 10:38:29;;;;;;;1.63;1.40;;;29.70;70.10;;;;;;5052816;28;20189;-58
2022/08/15 10:41:31;;;;;;;2.20;2.00;;;30.00;68.70;;;;;;5053393;28;20260;-59
2022/08/15 10:44:15;;;;;;;1.73;1.63;;;30.30;67.50;;;;;;5052333;28;20196;-59
2022/08/15 10:47:13;;;;;;;1.63;1.50;;;30.50;67.50;;;;;;5053046;28;20546;-59
2022/08/15 10:50:06;;;;;;;1.88;1.52;;;30.40;66.20;;;;;;5053649;28;20177;-59
2022/08/15 10:52:44;;;;;;;1.90;1.67;;;30.20;65.80;;;;;;5053426;28;20244;-59
2022/08/15 10:55:26;;;;;;;1.60;1.50;;;29.90;66.10;;;;;;5053187;28;20268;-59
2022/08/15 10:58:00;;;;;;;1.63;1.42;;;29.70;67.20;;;;;;5052563;28;20260;-59
2022/08/15 11:00:30;;;;;;;4.28;1.77;;;29.80;66.90;;;;;;5053031;28;20724;-59
2022/08/15 11:03:02;;;;;;;3.00;1.55;;;29.70;67.20;;;;;;5053443;28;20182;-59
2022/08/15 11:05:27;;;;;;;2.17;1.55;;;30.10;66.90;;;;;;5052968;28;20221;-59
2022/08/15 11:07:55;;;;;;;3.17;1.30;;;30.30;67.00;;;;;;5052880;28;20518;-59
2022/08/15 11:10:24;;;;;;;3.72;1.70;;;30.50;63.20;;;;;;5053166;28;20575;-59
2022/08/15 11:12:54;;;;;;;2.17;1.40;;;30.30;62.40;;;;;;5052946;28;20188;-59
2022/08/15 11:15:25;;;;;;;2.22;1.50;;;30.60;63.30;;;;;;5053015;28;20315;-59
2022/08/15 11:17:57;;;;;;;2.00;1.60;;;30.90;63.30;;;;;;5052630;28;20259;-59
2022/08/15 11:20:27;;;;;;;1.88;1.52;;;31.40;62.50;;;;;;5052851;28;20578;-59
2022/08/15 11:23:00;;;;;;;1.55;1.45;;;31.70;59.90;;;;;;5053037;28;20203;-59
2022/08/15 11:25:29;;;;;;;3.17;1.63;;;31.90;60.40;;;;;;5052740;28;20243;-59
2022/08/15 11:28:10;;;;;;;2.30;1.60;;;32.20;57.70;;;;;;5052990;28;20182;-59
2022/08/15 11:30:38;;;;;;;2.92;1.55;;;31.80;56.90;;;;;;5052633;28;20185;-59
2022/08/15 11:33:18;;;;;;;1.58;1.48;;;31.60;57.60;;;;;;5052667;28;20260;-59
2022/08/15 11:35:44;;;;;;;2.63;1.35;;;31.50;57.90;;;;;;5052599;28;20702;-59
2022/08/15 11:38:12;;;;;;;1.70;1.60;;;31.90;58.40;;;;;;5048905;28;20190;-59
2022/08/15 11:40:41;;;;;;;1.80;1.40;;;31.80;57.90;;;;;;5032543;28;20193;-59
2022/08/15 11:43:13;;;;;;;1.73;1.35;;;31.50;57.70;;;;;;5050578;28;20200;-59
2022/08/15 11:45:43;;;;;;;2.45;1.40;;;31.40;57.20;;;;;;5051711;28;20684;-59
2022/08/15 11:48:18;;;;;;;1.80;1.70;;;31.20;57.30;;;;;;5052425;28;20188;-59
2022/08/15 11:50:55;;;;;;;1.75;1.58;;;31.20;57.30;;;;;;5052266;28;20530;-59
2022/08/15 11:53:21;;;;;;;1.67;1.58;;;31.40;57.20;;;;;;5052236;28;20516;-60
2022/08/15 11:55:47;;;;;;;2.40;1.60;;;31.20;57.60;;;;;;5052405;28;20261;-59
2022/08/15 11:58:13;;;;;;;3.47;1.83;;;31.10;57.60;;;;;;5052095;28;20185;-59
2022/08/15 12:00:45;;;;;;;3.30;1.90;;;30.90;57.50;;;;;;5051609;28;20551;-58
2022/08/15 12:03:17;;;;;;;3.38;1.60;;;30.60;58.10;;;;;;5051463;28;20181;-58
2022/08/15 12:05:43;;;;;;;2.67;1.58;;;30.20;58.80;;;;;;5052175;28;20217;-59
2022/08/15 12:08:09;;;;;;;2.00;1.85;;;30.30;59.30;;;;;;5051591;28;20247;-60
2022/08/15 12:10:40;;;;;;;1.92;1.83;;;30.50;58.80;;;;;;5051922;28;20655;-59
2022/08/15 12:13:07;;;;;;;1.80;1.70;;;30.90;58.20;;;;;;5051925;28;20177;-59
2022/08/15 12:15:33;;;;;;;1.90;1.80;;;31.00;58.20;;;;;;5051841;28;20205;-58
2022/08/15 12:18:06;;;;;;;2.00;1.80;;;31.30;57.60;;;;;;5051515;28;20570;-58
2022/08/15 12:21:03;;;;;;;4.13;1.90;;;31.40;56.80;;;;;;5051807;28;20272;-59
2022/08/15 12:23:28;;;;;;;2.67;1.80;;;31.50;56.70;;;;;;5051830;28;20522;-60
2022/08/15 12:26:00;;;;;;;2.22;2.03;;;31.60;56.90;;;;;;5050976;28;20213;-60
2022/08/15 12:28:27;;;;;;;2.58;1.92;;;31.50;56.10;;;;;;5051931;28;20177;-60
2022/08/15 12:31:33;;;;;;;2.13;1.85;;;31.70;56.20;;;;;;5051839;28;20177;-61
2022/08/15 12:34:31;;;;;;;2.05;1.95;;;31.70;56.20;;;;;;5050455;28;20243;-60
2022/08/15 12:37:10;;;;;;;2.40;2.20;;;31.70;56.20;;;;;;5046260;28;20198;-60
2022/08/15 12:39:50;;;;;;;3.50;2.17;;;31.90;55.20;;;;;;5043727;28;20181;-60
2022/08/15 12:42:21;;;;;;;3.58;2.28;;;31.70;54.80;;;;;;5051029;28;20177;-61
2022/08/15 12:44:50;;;;;;;3.80;2.08;;;31.70;55.40;;;;;;5051527;28;20221;-60
2022/08/15 12:47:17;;;;;;;1.95;1.80;;;31.60;55.50;;;;;;5051537;28;20227;-61
2022/08/15 12:49:44;;;;;;;2.20;2.00;;;31.70;55.80;;;;;;5051339;28;20200;-60
2022/08/15 12:52:10;;;;;;;2.38;2.17;;;31.60;55.30;;;;;;5051306;28;20185;-61
2022/08/15 12:54:36;;;;;;;2.92;2.20;;;31.40;55.60;;;;;;5051076;28;20181;-60
2022/08/15 12:57:02;;;;;;;2.85;2.10;;;31.00;56.00;;;;;;5049051;28;20706;-60
2022/08/15 12:59:28;;;;;;;3.22;2.40;;;30.60;56.20;;;;;;5040196;28;20590;-60
2022/08/15 13:01:53;;;;;;;2.60;2.40;;;30.70;56.80;;;;;;5051101;28;20295;-60
2022/08/15 13:04:19;;;;;;;3.63;2.28;;;30.80;56.80;;;;;;5050791;28;20672;-60
2022/08/15 13:06:54;;;;;;;4.90;2.22;;;31.00;56.40;;;;;;5051316;28;20584;-60
2022/08/15 13:09:22;;;;;;;3.65;2.10;;;30.90;55.80;;;;;;5051391;28;20260;-60
2022/08/15 13:11:48;;;;;;;2.88;2.10;;;30.70;55.90;;;;;;5051400;28;20276;-60
2022/08/15 13:14:17;;;;;;;2.97;2.10;;;30.60;56.40;;;;;;5051403;28;20268;-60
2022/08/15 13:16:47;;;;;;;2.30;2.10;;;30.70;56.70;;;;;;5051376;28;20199;-60
2022/08/15 13:19:23;;;;;;;2.90;2.20;;;30.80;56.00;;;;;;5051010;28;20268;-60